Time;durP1;ratioP1;P1;durP2;ratioP2;P2;SDS_P1;SDS_P2;PMS_P1;PMS_P2;Temp;Humidity;BMP_temperature;BMP_pressure;BME280_temperature;BME280_humidity;BME280_pressure;Samples;Min_cycle;Max_cycle;Signal;HPM_P1;HPM_P2
2021/11/18 06:47:31;;;;;;;88.15;51.00;;;;;;;2.66;94.67;98554.88;1870849;76;28378;-61
2021/11/18 06:49:59;;;;;;;103.92;47.48;;;;;;;2.62;94.59;98560.34;1825840;78;21057;-59
2021/11/18 06:52:26;;;;;;;51.20;37.63;;;;;;;2.68;94.47;98551.53;1819642;77;21319;-55
2021/11/18 06:54:53;;;;;;;51.10;33.83;;;;;;;2.74;94.43;98554.58;1816798;77;21023;-57
2021/11/18 06:57:20;;;;;;;43.98;31.02;;;;;;;2.85;94.39;98554.84;1817967;77;20868;-58
2021/11/18 06:59:46;;;;;;;45.10;31.50;;;;;;;2.98;94.24;98558.59;1820754;77;20912;-55
2021/11/18 07:02:15;;;;;;;84.90;39.83;;;;;;;3.09;94.12;98561.77;1814477;77;20987;-58
2021/11/18 07:04:45;;;;;;;52.65;32.70;;;;;;;3.21;93.90;98559.94;1817827;77;21085;-59
2021/11/18 07:07:13;;;;;;;50.17;33.73;;;;;;;3.30;93.63;98562.02;1819635;77;21343;-59
2021/11/18 07:09:40;;;;;;;49.20;32.33;;;;;;;3.40;93.27;98564.09;1818063;77;20895;-59
2021/11/18 07:12:16;;;;;;;47.23;32.80;;;;;;;3.45;93.05;98564.22;1817061;78;20998;-58
2021/11/18 07:14:43;;;;;;;47.38;30.97;;;;;;;3.51;92.85;98569.90;1822844;78;20986;-57
2021/11/18 07:17:10;;;;;;;45.08;32.33;;;;;;;3.57;92.34;98578.78;1823326;77;21058;-57
2021/11/18 07:19:38;;;;;;;52.78;34.00;;;;;;;3.59;92.35;98561.62;1820506;78;20852;-60
2021/11/18 07:22:05;;;;;;;55.85;39.45;;;;;;;3.63;92.21;98568.05;1822967;78;21077;-60
2021/11/18 07:24:51;;;;;;;56.65;34.40;;;;;;;3.68;92.04;98568.17;1820014;78;21565;-59
2021/11/18 07:27:19;;;;;;;55.12;38.02;;;;;;;3.74;91.90;98565.94;1820591;78;21063;-60
2021/11/18 07:29:46;;;;;;;48.05;34.88;;;;;;;3.80;91.79;98571.62;1820639;78;21100;-57
2021/11/18 07:32:13;;;;;;;64.55;40.33;;;;;;;3.86;91.55;98574.65;1796476;78;21121;-59
2021/11/18 07:34:40;;;;;;;57.55;41.80;;;;;;;3.90;91.50;98565.22;1820579;78;20899;-55
2021/11/18 07:37:09;;;;;;;63.17;41.25;;;;;;;3.95;91.33;98561.34;1818527;78;21271;-58
2021/11/18 07:39:35;;;;;;;121.87;70.65;;;;;;;3.97;91.13;98555.29;1816936;78;21054;-58
2021/11/18 07:42:03;;;;;;;91.28;56.48;;;;;;;3.98;90.99;98560.08;1820108;78;21770;-59
2021/11/18 07:44:34;;;;;;;77.92;42.48;;;;;;;3.98;90.80;98557.42;1769677;78;21098;-59
2021/11/18 07:47:20;;;;;;;110.78;43.50;;;;;;;4.01;90.74;98548.98;1819308;78;20979;-60
2021/11/18 07:49:48;;;;;;;67.42;39.10;;;;;;;4.05;90.64;98561.53;1822516;78;21062;-57
2021/11/18 07:52:15;;;;;;;53.52;36.20;;;;;;;4.06;90.48;98556.53;1781205;79;21556;-59
2021/11/18 07:54:42;;;;;;;56.63;37.05;;;;;;;4.06;90.52;98559.19;1753506;81;21212;-61
2021/11/18 07:57:09;;;;;;;54.42;38.05;;;;;;;4.09;90.57;98564.02;1780657;80;21413;-56
2021/11/18 07:59:37;;;;;;;52.03;36.28;;;;;;;4.15;90.57;98560.42;1767907;80;21143;-59
2021/11/18 08:02:04;;;;;;;52.13;37.05;;;;;;;4.21;90.64;98573.78;1776774;80;21083;-59
2021/11/18 08:04:32;;;;;;;52.70;36.55;;;;;;;4.26;90.25;98563.28;1785777;79;21039;-59
2021/11/18 08:07:03;;;;;;;56.50;37.28;;;;;;;4.27;90.26;98560.37;1787703;79;21133;-57
2021/11/18 08:09:29;;;;;;;53.48;37.53;;;;;;;4.27;90.14;98560.89;1788447;79;20919;-57
2021/11/18 08:11:58;;;;;;;45.43;34.73;;;;;;;4.28;90.13;98567.82;1785510;79;21053;-57
2021/11/18 08:14:25;;;;;;;52.85;36.03;;;;;;;4.29;90.08;98572.06;1789478;79;21071;-59
2021/11/18 08:16:53;;;;;;;56.13;37.60;;;;;;;4.28;89.90;98578.43;1798854;79;21942;-56
2021/11/18 08:19:20;;;;;;;52.95;36.95;;;;;;;4.29;89.87;98574.72;1813603;79;21112;-59
2021/11/18 08:21:49;;;;;;;51.00;37.83;;;;;;;4.31;89.82;98572.66;1813053;79;21077;-58
2021/11/18 08:24:18;;;;;;;50.63;36.53;;;;;;;4.31;89.89;98584.05;1813594;78;21493;-58
2021/11/18 08:26:46;;;;;;;58.10;35.78;;;;;;;4.32;89.84;98574.26;1813219;79;21074;-55
2021/11/18 08:29:17;;;;;;;50.28;36.03;;;;;;;4.31;89.95;98577.97;1812657;79;21583;-57
2021/11/18 08:31:45;;;;;;;53.28;37.45;;;;;;;4.31;89.99;98577.42;1813672;78;21737;-59
2021/11/18 08:34:23;;;;;;;54.60;36.68;;;;;;;4.28;89.99;98579.75;1811886;79;21050;-59
2021/11/18 08:36:52;;;;;;;55.98;38.65;;;;;;;4.26;90.13;98576.54;1814079;79;20955;-56
2021/11/18 08:39:22;;;;;;;54.00;36.48;;;;;;;4.21;90.16;98580.41;1814819;79;21485;-57
2021/11/18 08:42:01;;;;;;;56.02;38.05;;;;;;;4.18;90.34;98583.52;1783641;79;21120;-55
2021/11/18 08:44:38;;;;;;;57.60;35.93;;;;;;;4.15;90.44;98582.14;1826270;77;20987;-58
2021/11/18 08:47:08;;;;;;;56.40;38.40;;;;;;;4.14;90.64;98581.33;1822925;77;20912;-57
2021/11/18 08:49:36;;;;;;;54.95;37.40;;;;;;;4.14;90.68;98573.92;1803465;78;20916;-56
2021/11/18 08:52:08;;;;;;;53.75;37.33;;;;;;;4.18;90.75;98576.38;1821670;77;20955;-56
2021/11/18 08:54:39;;;;;;;56.95;36.90;;;;;;;4.23;90.77;98575.67;1816711;78;20880;-55
2021/11/18 08:57:06;;;;;;;52.27;36.53;;;;;;;4.33;90.73;98579.86;1822148;78;21035;-56
2021/11/18 08:59:36;;;;;;;52.65;36.60;;;;;;;4.39;90.63;98565.12;1819750;78;20956;-56
2021/11/18 09:02:11;;;;;;;55.43;37.95;;;;;;;4.47;90.43;98567.41;1819101;78;21007;-60
2021/11/18 09:04:38;;;;;;;50.48;38.02;;;;;;;4.53;90.12;98570.95;1820194;78;21474;-59
2021/11/18 09:07:06;;;;;;;55.38;39.53;;;;;;;4.56;90.19;98570.48;1821783;78;20951;-60
2021/11/18 09:09:35;;;;;;;58.20;36.20;;;;;;;4.63;90.27;98568.48;1821116;78;21854;-57
2021/11/18 09:12:04;;;;;;;51.98;34.55;;;;;;;4.71;90.36;98577.41;1821280;77;20896;-58
2021/11/18 09:14:33;;;;;;;50.55;34.83;;;;;;;4.82;90.17;98570.70;1820162;77;21023;-57
2021/11/18 09:17:00;;;;;;;50.65;36.35;;;;;;;4.89;89.90;98577.19;1809630;78;20927;-57
2021/11/18 09:19:32;;;;;;;51.70;36.85;;;;;;;4.89;89.71;98569.73;1799647;78;20995;-59
2021/11/18 09:22:00;;;;;;;48.63;35.63;;;;;;;4.88;89.63;98578.22;1789177;80;21082;-59
2021/11/18 09:24:38;;;;;;;49.55;35.88;;;;;;;4.83;89.42;98565.66;1788500;79;21541;-58
2021/11/18 09:27:14;;;;;;;51.58;36.05;;;;;;;4.77;89.40;98563.98;1788347;80;20955;-59
2021/11/18 09:29:44;;;;;;;48.10;37.42;;;;;;;4.73;89.64;98559.39;1809558;78;21332;-59
2021/11/18 09:32:28;;;;;;;50.00;36.70;;;;;;;4.73;89.78;98570.78;1788721;79;20963;-56
2021/11/18 09:34:57;;;;;;;50.80;35.05;;;;;;;4.75;89.74;98562.61;1789258;79;21301;-60
2021/11/18 09:37:25;;;;;;;51.33;35.92;;;;;;;4.76;89.83;98561.55;1789460;80;20927;-56
2021/11/18 09:39:53;;;;;;;48.38;34.80;;;;;;;4.79;89.96;98555.77;1789591;79;20880;-62
2021/11/18 09:42:25;;;;;;;52.03;36.05;;;;;;;4.81;89.98;98545.71;1789854;80;20919;-61
2021/11/18 09:45:20;;;;;;;46.40;34.05;;;;;;;4.77;90.07;98547.25;1789506;80;20927;-57
2021/11/18 09:48:24;;;;;;;48.60;33.58;;;;;;;4.73;90.23;98542.92;1793406;80;21173;-60
2021/11/18 09:51:19;;;;;;;52.25;36.33;;;;;;;4.70;90.43;98538.63;1795070;80;20927;-57
2021/11/18 09:54:17;;;;;;;49.45;36.40;;;;;;;4.72;90.68;98539.19;1795170;79;21349;-59
2021/11/18 09:57:12;;;;;;;48.52;35.03;;;;;;;4.71;90.84;98533.62;1747243;81;20983;-57
2021/11/18 10:00:18;;;;;;;53.68;36.03;;;;;;;4.71;90.96;98526.98;1829736;77;21312;-58
2021/11/18 10:03:18;;;;;;;52.08;37.28;;;;;;;4.73;91.14;98532.31;1835378;77;21104;-59
2021/11/18 10:06:19;;;;;;;51.10;36.83;;;;;;;4.75;91.15;98526.78;1829460;77;20844;-57
2021/11/18 10:09:08;;;;;;;51.68;37.55;;;;;;;4.71;91.18;98526.44;1844603;77;20958;-56
2021/11/18 10:12:19;;;;;;;55.50;36.98;;;;;;;4.71;91.34;98525.66;1827571;77;20961;-57
2021/11/18 10:15:12;;;;;;;51.77;37.25;;;;;;;4.69;91.35;98526.39;1826082;78;20884;-57
2021/11/18 10:17:49;;;;;;;61.10;40.55;;;;;;;4.68;91.51;98528.78;1812527;78;21126;-58
2021/11/18 10:20:31;;;;;;;51.10;35.60;;;;;;;4.69;91.55;98531.70;1832752;78;20899;-57
2021/11/18 10:23:09;;;;;;;51.13;35.43;;;;;;;4.71;91.57;98524.33;1826378;77;21001;-58
2021/11/18 10:25:49;;;;;;;53.75;37.08;;;;;;;4.71;91.57;98523.00;1806014;77;21058;-56
2021/11/18 10:28:24;;;;;;;51.53;36.55;;;;;;;4.72;91.62;98531.23;1812128;78;20947;-59
2021/11/18 10:31:18;;;;;;;56.30;37.53;;;;;;;4.72;91.65;98522.75;1818496;78;21119;-60
2021/11/18 10:34:15;;;;;;;53.50;36.17;;;;;;;4.76;91.67;98527.05;1802299;77;20912;-56
2021/11/18 10:37:10;;;;;;;52.48;35.90;;;;;;;4.82;91.62;98524.78;1806990;77;21533;-59
2021/11/18 10:40:22;;;;;;;54.25;37.30;;;;;;;4.82;91.62;98523.45;1825378;77;20915;-58
2021/11/18 10:43:05;;;;;;;53.92;34.95;;;;;;;4.84;91.65;98524.01;1811589;78;20967;-58
2021/11/18 10:45:40;;;;;;;49.67;33.55;;;;;;;4.85;91.59;98522.98;1824254;78;21541;-59
2021/11/18 10:48:22;;;;;;;;;;;;;;;4.88;91.65;98529.63;1807155;78;20924;-58
2021/11/18 10:51:05;;;;;;;54.83;37.17;;;;;;;4.90;91.64;98528.34;1814971;79;20116;-59
2021/11/18 10:54:07;;;;;;;52.93;35.68;;;;;;;4.91;91.70;98525.98;1815285;78;21851;-61
2021/11/18 10:56:56;;;;;;;50.25;34.25;;;;;;;4.93;91.69;98527.88;1813675;77;20940;-59
2021/11/18 10:59:38;;;;;;;55.45;35.60;;;;;;;4.96;91.71;98530.57;1784828;79;21899;-56
2021/11/18 11:02:28;;;;;;;54.95;37.63;;;;;;;4.94;91.74;98530.82;1809928;78;20928;-59
2021/11/18 11:04:58;;;;;;;53.45;36.93;;;;;;;4.94;91.73;98523.37;1781684;79;20889;-58
2021/11/18 11:07:39;;;;;;;52.08;36.25;;;;;;;4.94;91.84;98528.69;1783760;79;21395;-58
2021/11/18 11:10:12;;;;;;;47.03;34.27;;;;;;;4.94;91.94;98530.82;1788508;79;21062;-61
2021/11/18 11:12:59;;;;;;;51.30;35.60;;;;;;;4.97;91.93;98524.23;1814334;78;21885;-58
2021/11/18 11:15:40;;;;;;;51.63;35.95;;;;;;;4.97;91.93;98519.70;1811790;79;20920;-58
2021/11/18 11:18:37;;;;;;;50.28;34.78;;;;;;;5.02;91.87;98518.45;1807662;78;21458;-60
2021/11/18 11:21:38;;;;;;;;;;;;;;;5.03;91.80;98519.27;1784720;80;21121;-56
2021/11/18 11:24:43;;;;;;;50.98;33.10;;;;;;;5.06;91.72;98518.27;1782587;79;20114;-59
2021/11/18 11:28:02;;;;;;;49.53;34.33;;;;;;;5.07;91.77;98511.90;1783413;80;21763;-59
2021/11/18 11:30:40;;;;;;;50.50;33.67;;;;;;;5.10;91.65;98515.41;1782154;80;21479;-56
2021/11/18 11:33:13;;;;;;;52.67;36.25;;;;;;;5.09;91.55;98504.49;1788385;78;20920;-57
2021/11/18 11:36:01;;;;;;;44.18;33.08;;;;;;;5.08;91.60;98506.88;1813420;78;21022;-57
2021/11/18 11:38:52;;;;;;;42.80;31.07;;;;;;;5.03;91.56;98506.80;1802538;77;20968;-58
2021/11/18 11:41:53;;;;;;;49.05;34.18;;;;;;;5.05;91.59;98508.69;1783857;79;21180;-58
2021/11/18 11:44:47;;;;;;;51.08;32.83;;;;;;;5.09;91.59;98501.84;1759299;79;20868;-57
2021/11/18 11:47:31;;;;;;;57.17;35.50;;;;;;;5.13;91.58;98501.66;1810179;79;20889;-57
2021/11/18 11:50:24;;;;;;;47.80;32.98;;;;;;;5.14;91.29;98497.94;1815898;79;20900;-57
2021/11/18 11:53:15;;;;;;;49.45;32.33;;;;;;;5.12;91.32;98487.27;1815731;78;20892;-58
2021/11/18 11:56:01;;;;;;;47.95;33.60;;;;;;;5.10;91.36;98485.39;1815954;78;21081;-60
2021/11/18 11:58:51;;;;;;;52.45;34.88;;;;;;;5.07;91.44;98483.21;1809438;77;20896;-58
2021/11/18 12:01:47;;;;;;;44.03;32.38;;;;;;;5.06;91.55;98484.27;1803752;78;21370;-59
2021/11/18 12:04:41;;;;;;;46.13;32.55;;;;;;;5.08;91.62;98476.86;1781505;77;20991;-60
2021/11/18 12:07:31;;;;;;;49.42;32.78;;;;;;;5.07;91.65;98472.07;1801755;79;21337;-60
2021/11/18 12:10:29;;;;;;;47.55;33.55;;;;;;;5.09;91.71;98481.92;1815928;79;21111;-57
2021/11/18 12:13:21;;;;;;;41.55;31.12;;;;;;;5.09;91.72;98484.58;1806138;78;20872;-57
2021/11/18 12:15:56;;;;;;;42.85;29.35;;;;;;;5.12;91.70;98488.60;1787078;79;20951;-59
2021/11/18 12:18:36;;;;;;;49.58;32.00;;;;;;;5.13;91.73;98481.73;1790181;78;20967;-60
2021/11/18 12:21:03;;;;;;;44.15;30.62;;;;;;;5.17;91.74;98481.53;1812656;78;20888;-58
2021/11/18 12:24:16;;;;;;;42.05;30.48;;;;;;;5.21;91.61;98478.66;1817883;78;21106;-60
2021/11/18 12:26:52;;;;;;;41.25;28.45;;;;;;;5.25;91.50;98484.30;1809197;77;21371;-59
2021/11/18 12:29:27;;;;;;;43.28;30.62;;;;;;;5.25;91.42;98481.09;1809089;77;21399;-60
2021/11/18 12:32:20;;;;;;;43.73;29.98;;;;;;;5.27;91.34;98486.19;1783936;79;20951;-61
2021/11/18 12:35:01;;;;;;;45.50;29.75;;;;;;;5.27;91.23;98481.68;1798154;79;21135;-58
2021/11/18 12:38:27;;;;;;;44.15;28.98;;;;;;;5.26;91.21;98492.02;1818572;78;21064;-59
2021/11/18 12:41:34;;;;;;;41.33;28.92;;;;;;;5.27;91.24;98488.84;1823040;78;21031;-58
2021/11/18 12:44:49;;;;;;;39.95;27.77;;;;;;;5.29;91.23;98487.55;1816058;79;25058;-61
2021/11/18 12:47:50;;;;;;;39.35;29.20;;;;;;;5.31;90.99;98478.81;1817261;78;20978;-60
2021/11/18 12:50:54;;;;;;;42.15;28.50;;;;;;;5.30;90.96;98479.84;1827374;78;20975;-58
2021/11/18 12:53:29;;;;;;;35.65;26.25;;;;;;;5.30;90.95;98481.17;1784224;78;21113;-58
2021/11/18 12:56:14;;;;;;;;;;;;;;;5.29;90.90;98478.25;1812011;78;20928;-60
2021/11/18 12:58:46;;;;;;;37.70;25.80;;;;;;;5.30;90.99;98488.36;1827899;78;20056;-57
2021/11/18 13:01:25;;;;;;;36.63;26.07;;;;;;;5.31;90.89;98482.80;1833826;78;20912;-58
2021/11/18 13:03:59;;;;;;;34.58;25.27;;;;;;;5.34;90.79;98484.16;1826984;78;20821;-59
2021/11/18 13:06:45;;;;;;;32.63;23.45;;;;;;;5.35;90.62;98477.78;1823732;78;21115;-57
2021/11/18 13:09:16;;;;;;;37.53;26.75;;;;;;;5.38;90.56;98479.95;1826968;78;20996;-62
2021/11/18 13:11:53;;;;;;;38.17;26.25;;;;;;;5.40;90.64;98472.54;1826695;78;21011;-61
2021/11/18 13:14:32;;;;;;;32.25;24.35;;;;;;;5.45;90.46;98482.72;1822765;78;21363;-60
2021/11/18 13:17:32;;;;;;;32.95;23.32;;;;;;;5.50;90.19;98483.31;1812385;78;20994;-59
2021/11/18 13:20:16;;;;;;;33.48;23.60;;;;;;;5.52;89.99;98487.34;1805732;77;21732;-60
2021/11/18 13:22:53;;;;;;;29.23;22.77;;;;;;;5.55;89.84;98490.03;1809293;77;21002;-60
2021/11/18 13:25:26;;;;;;;28.60;22.15;;;;;;;5.58;89.65;98490.06;1809576;77;20935;-60
2021/11/18 13:28:16;;;;;;;32.73;23.67;;;;;;;5.59;89.54;98491.66;1805947;77;20920;-58
2021/11/18 13:30:59;;;;;;;34.95;23.40;;;;;;;5.62;89.53;98488.52;1825428;78;21000;-61
2021/11/18 13:33:34;;;;;;;32.15;23.85;;;;;;;5.64;89.37;98489.06;1823406;78;21071;-56
2021/11/18 13:36:18;;;;;;;32.08;22.02;;;;;;;5.63;89.31;98486.14;1825547;78;20979;-58
2021/11/18 13:38:57;;;;;;;30.70;20.72;;;;;;;5.62;89.15;98491.98;1822752;78;20981;-60
2021/11/18 13:41:43;;;;;;;27.85;20.75;;;;;;;5.64;89.02;98493.05;1827585;78;20959;-59
2021/11/18 13:44:14;;;;;;;30.92;21.93;;;;;;;5.64;88.63;98494.38;1827136;78;20847;-62
2021/11/18 13:46:52;;;;;;;32.28;22.02;;;;;;;5.63;88.69;98498.11;1805793;78;21075;-58
2021/11/18 13:49:23;;;;;;;29.77;21.73;;;;;;;5.62;88.61;98497.81;1821114;78;20925;-57
2021/11/18 13:52:27;;;;;;;29.32;20.72;;;;;;;5.60;88.52;98498.59;1820986;78;20957;-64
2021/11/18 13:55:23;;;;;;;29.15;20.23;;;;;;;5.60;88.51;98507.37;1824908;78;20954;-58
2021/11/18 13:57:52;;;;;;;31.05;21.45;;;;;;;5.60;88.49;98509.22;1795020;80;20876;-59
2021/11/18 14:00:29;;;;;;;27.35;20.65;;;;;;;5.60;88.41;98505.23;1816161;78;21083;-61
2021/11/18 14:03:04;;;;;;;27.30;19.87;;;;;;;5.63;88.32;98501.55;1792789;79;20955;-59
2021/11/18 14:05:35;;;;;;;25.97;20.17;;;;;;;5.63;88.15;98502.09;1813474;78;20916;-60
2021/11/18 14:08:17;;;;;;;30.00;19.32;;;;;;;5.60;88.00;98506.56;1827175;78;21395;-60
2021/11/18 14:10:58;;;;;;;26.93;19.32;;;;;;;5.59;87.88;98500.95;1821526;78;20964;-61
2021/11/18 14:13:52;;;;;;;24.72;18.30;;;;;;;5.57;87.76;98503.87;1808283;78;21119;-60
2021/11/18 14:16:36;;;;;;;27.75;19.40;;;;;;;5.56;87.67;98503.58;1835003;78;20986;-65
2021/11/18 14:19:14;;;;;;;29.67;19.52;;;;;;;5.53;87.66;98506.20;1819670;78;21005;-59
2021/11/18 14:21:59;;;;;;;27.20;19.70;;;;;;;5.51;87.71;98502.98;1793872;80;21101;-59
2021/11/18 14:24:42;;;;;;;26.25;17.67;;;;;;;5.53;87.75;98498.77;1815029;78;21102;-60
2021/11/18 14:27:27;;;;;;;30.02;19.98;;;;;;;5.54;87.58;98497.70;1840778;78;21159;-62
2021/11/18 14:30:10;;;;;;;25.32;17.40;;;;;;;5.53;87.45;98495.56;1829161;78;20980;-56
2021/11/18 14:32:58;;;;;;;27.98;18.98;;;;;;;5.52;87.40;98501.95;1837868;77;20894;-60
